createdAt,value
2019-05-22T00:01:00.652Z,99544.73
2019-05-22T00:04:15.984Z,99543.13
2019-05-22T00:07:20.287Z,99542.06
2019-05-22T00:10:26.202Z,99544.34
2019-05-22T00:13:30.965Z,99545.55
2019-05-22T00:16:35.159Z,99542.41
2019-05-22T00:19:40.526Z,99547.38
2019-05-22T00:22:48.254Z,99548.34
2019-05-22T00:25:53.346Z,99558.36
2019-05-22T00:28:56.744Z,99557.17
2019-05-22T00:32:00.791Z,99554.64
2019-05-22T00:35:05.129Z,99562.96
2019-05-22T00:38:11.512Z,99565.28
2019-05-22T00:41:17.650Z,99560.47
2019-05-22T00:44:21.934Z,99557.81
2019-05-22T00:47:28.376Z,99563.34
2019-05-22T00:50:40.350Z,99566.95
2019-05-22T00:54:08.058Z,99568.58
2019-05-22T00:57:29.618Z,99565.92
2019-05-22T01:00:45.511Z,99568.58
2019-05-22T01:03:50.514Z,99575.84
2019-05-22T01:06:57.596Z,99561.01
2019-05-22T01:10:04.384Z,99568.98
2019-05-22T01:13:09.932Z,99574.16
2019-05-22T01:16:15.267Z,99571.12
2019-05-22T01:19:19.247Z,99571.85
2019-05-22T01:22:23.042Z,99570.52
2019-05-22T01:25:27.497Z,99568.72
2019-05-22T01:28:34.145Z,99569.80
2019-05-22T01:31:41.783Z,99575.84
2019-05-22T01:34:46.192Z,99577.44
2019-05-22T01:37:52.539Z,99576.58
2019-05-22T01:40:58.832Z,99572.97
2019-05-22T01:44:03.290Z,99586.40
2019-05-22T01:47:13.313Z,99586.88
2019-05-22T01:50:24.429Z,99587.73
2019-05-22T01:53:32.604Z,99592.53
2019-05-22T01:56:36.311Z,99586.27
2019-05-22T01:59:39.813Z,99594.23
2019-05-22T02:02:43.784Z,99593.39
2019-05-22T02:05:49.286Z,99597.03
2019-05-22T02:09:02.141Z,99603.67
2019-05-22T02:12:13.514Z,99604.66
2019-05-22T02:15:18.789Z,99604.02
2019-05-22T02:18:22.973Z,99599.34
2019-05-22T02:21:27.463Z,99604.08
2019-05-22T02:24:31.172Z,99612.05
2019-05-22T02:27:35.943Z,99606.60
2019-05-22T02:30:42.405Z,99607.59
2019-05-22T02:34:02.556Z,99615.19
2019-05-22T02:37:07.500Z,99620.16
2019-05-22T02:40:20.157Z,99623.29
2019-05-22T02:43:25.482Z,99617.84
2019-05-22T02:46:29.615Z,99622.47
2019-05-22T02:49:33.807Z,99625.81
2019-05-22T02:52:37.970Z,99635.63
2019-05-22T02:55:44.519Z,99637.09
2019-05-22T02:58:49.431Z,99638.89
2019-05-22T03:01:53.059Z,99636.38
2019-05-22T03:04:59.975Z,99642.67
2019-05-22T03:08:04.016Z,99642.06
2019-05-22T03:11:08.336Z,99640.87
2019-05-22T03:14:13.723Z,99642.89
2019-05-22T03:17:27.682Z,99645.67
2019-05-22T03:20:32.280Z,99636.38
2019-05-22T03:23:36.972Z,99647.73
2019-05-22T03:26:47.288Z,99650.86
2019-05-22T03:29:53.300Z,99650.17
2019-05-22T03:32:57.483Z,99659.61
2019-05-22T03:36:07.546Z,99652.32
2019-05-22T03:39:12.671Z,99661.41
2019-05-22T03:42:17.101Z,99659.61
2019-05-22T03:45:22.364Z,99656.95
2019-05-22T03:48:26.444Z,99658.63
2019-05-22T03:51:36.297Z,99656.95
2019-05-22T03:54:42.388Z,99657.55
2019-05-22T03:57:46.013Z,99662.52
2019-05-22T04:00:50.416Z,99658.41
2019-05-22T04:03:54.022Z,99671.19
2019-05-22T04:06:57.895Z,99664.33
2019-05-22T04:10:01.356Z,99676.77
2019-05-22T04:13:06.342Z,99677.75
2019-05-22T04:16:12.754Z,99674.48
2019-05-22T04:19:16.246Z,99679.80
2019-05-22T04:22:20.024Z,99676.64
2019-05-22T04:25:23.453Z,99682.59
2019-05-22T04:28:27.882Z,99682.80
2019-05-22T04:31:57.990Z,99688.37
2019-05-22T04:35:02.600Z,99690.56
2019-05-22T04:38:06.037Z,99698.03
2019-05-22T04:41:10.534Z,99697.69
2019-05-22T04:44:14.069Z,99697.20
2019-05-22T04:47:17.561Z,99691.77
2019-05-22T04:50:22.064Z,99702.02
2019-05-22T04:53:27.583Z,99699.02
2019-05-22T04:56:31.222Z,99706.17
2019-05-22T04:59:34.947Z,99709.99
2019-05-22T05:02:38.942Z,99714.62
2019-05-22T05:05:43.750Z,99716.64
2019-05-22T05:08:47.393Z,99723.45
2019-05-22T05:11:50.874Z,99728.52
2019-05-22T05:14:54.389Z,99728.52
2019-05-22T05:17:58.882Z,99734.55
2019-05-22T05:21:02.302Z,99738.20
2019-05-22T05:24:05.920Z,99738.20
2019-05-22T05:27:09.450Z,99738.20
2019-05-22T05:30:13.395Z,99747.50
2019-05-22T05:33:18.104Z,99747.12
2019-05-22T05:36:23.586Z,99751.10
2019-05-22T05:40:09.836Z,99750.97
2019-05-22T05:43:16.556Z,99755.09
2019-05-22T05:46:20.024Z,99749.08
2019-05-22T05:49:24.328Z,99741.11
2019-05-22T05:52:28.115Z,99740.13
2019-05-22T05:55:55.440Z,99744.11
2019-05-22T05:59:00.260Z,99736.73
2019-05-22T06:02:05.065Z,99743.38
2019-05-22T06:05:09.492Z,99749.08
2019-05-22T06:08:13.218Z,99755.72
2019-05-22T06:11:41.162Z,99765.85
2019-05-22T06:14:45.543Z,99767.56
2019-05-22T06:18:29.088Z,99769.36
2019-05-22T06:21:33.402Z,99775.94
2019-05-22T06:25:01.653Z,99783.15
2019-05-22T06:28:05.908Z,99776.84
2019-05-22T06:31:15.498Z,99778.18
2019-05-22T06:34:19.181Z,99774.37
2019-05-22T06:37:34.696Z,99777.16
2019-05-22T06:40:38.141Z,99781.23
2019-05-22T06:44:38.860Z,99781.92
2019-05-22T06:47:44.344Z,99789.16
2019-05-22T06:50:49.510Z,99793.28
2019-05-22T06:53:53.175Z,99799.42
2019-05-22T06:56:57.702Z,99803.97
2019-05-22T07:00:14.053Z,99807.91
2019-05-22T07:03:10.655Z,99808.52
2019-05-22T07:06:15.202Z,99813.84
2019-05-22T07:09:19.283Z,99820.86
2019-05-22T07:12:24.010Z,99821.34
2019-05-22T07:15:30.886Z,99820.14
2019-05-22T07:18:34.591Z,99825.37
2019-05-22T07:21:38.256Z,99826.70
2019-05-22T07:24:41.900Z,99834.04
2019-05-22T07:27:45.416Z,99838.03
2019-05-22T07:30:49.298Z,99839.52
2019-05-22T07:33:52.954Z,99839.27
2019-05-22T07:36:56.538Z,99836.48
2019-05-22T07:40:00.090Z,99838.66
2019-05-22T07:43:05.759Z,99854.97
2019-05-22T07:46:10.492Z,99846.86
2019-05-22T07:49:14.076Z,99843.86
2019-05-22T07:52:17.517Z,99849.65
2019-05-22T07:55:22.457Z,99852.56
2019-05-22T07:58:28.835Z,99852.56
2019-05-22T08:01:32.609Z,99853.89
2019-05-22T08:04:36.561Z,99862.25
2019-05-22T08:07:40.692Z,99858.96
2019-05-22T08:10:44.768Z,99866.24
2019-05-22T08:13:49.190Z,99875.17
2019-05-22T08:16:58.438Z,99866.11
2019-05-22T08:20:02.073Z,99864.44
2019-05-22T08:23:05.894Z,99874.73
2019-05-22T08:26:10.700Z,99880.90
2019-05-22T08:29:14.640Z,99877.73
2019-05-22T08:32:18.502Z,99884.38
2019-05-22T08:35:22.230Z,99881.47
2019-05-22T08:38:33.578Z,99878.21
2019-05-22T08:41:38.859Z,99880.88
2019-05-22T08:44:42.430Z,99888.47
2019-05-22T08:47:46.033Z,99899.23
2019-05-22T08:50:49.869Z,99900.56
2019-05-22T08:53:53.773Z,99902.40
2019-05-22T08:56:57.367Z,99905.05
2019-05-22T09:00:12.389Z,99920.03
2019-05-22T09:03:16.396Z,99926.20
2019-05-22T09:06:20.561Z,99938.52
2019-05-22T09:09:26.620Z,99940.95
2019-05-22T09:12:36.937Z,99954.61
2019-05-22T09:19:14.090Z,99962.58
2019-05-22T09:22:18.708Z,99962.58
2019-05-22T09:25:22.227Z,99960.05
2019-05-22T09:28:25.716Z,99962.23
2019-05-22T09:31:29.248Z,99971.16
2019-05-22T09:34:32.716Z,99969.83
2019-05-22T09:37:36.231Z,99972.02
2019-05-22T09:40:39.738Z,99969.58
2019-05-22T09:43:44.235Z,99969.58
2019-05-22T09:46:49.235Z,99975.28
2019-05-22T09:49:52.694Z,99973.95
2019-05-22T09:52:58.280Z,99978.89
2019-05-22T09:56:02.411Z,99983.52
2019-05-22T09:59:05.862Z,99978.79
2019-05-22T10:02:09.885Z,99980.47
2019-05-22T10:05:13.878Z,99986.52
2019-05-22T10:08:18.386Z,99991.48
2019-05-22T10:11:23.331Z,99989.53
2019-05-22T10:14:27.842Z,99993.17
2019-05-22T10:17:33.019Z,99994.14
2019-05-22T10:20:36.765Z,100009.47
2019-05-22T10:23:40.978Z,100009.25
2019-05-22T10:26:50.268Z,100018.78
2019-05-22T10:29:54.403Z,100020.11
2019-05-22T10:33:00.279Z,100017.70
2019-05-22T10:36:04.233Z,100034.39
2019-05-22T10:39:08.088Z,100034.73
2019-05-22T10:42:11.987Z,100033.41
2019-05-22T10:45:15.563Z,100031.14
2019-05-22T10:48:19.085Z,100035.12
2019-05-22T10:51:23.100Z,100040.91
2019-05-22T10:54:27.491Z,100044.05
2019-05-22T10:57:31.346Z,100052.03
2019-05-22T11:00:35.033Z,100052.66
2019-05-22T11:03:40.463Z,100052.41
2019-05-22T11:06:44.371Z,100057.10
2019-05-22T11:09:49.031Z,100055.89
2019-05-22T11:12:52.688Z,100060.74
2019-05-22T11:15:58.227Z,100062.66
2019-05-22T11:19:01.901Z,100056.26
2019-05-22T11:22:07.385Z,100056.64
2019-05-22T11:25:12.966Z,100052.27
2019-05-22T11:28:17.492Z,100055.91
2019-05-22T11:31:21.007Z,100048.44
2019-05-22T11:34:25.510Z,100057.59
2019-05-22T11:37:30.499Z,100054.34
2019-05-22T11:40:33.945Z,100054.93
2019-05-22T11:43:37.875Z,100066.30
2019-05-22T11:46:41.368Z,100056.64
2019-05-22T11:49:44.888Z,100057.73
2019-05-22T11:52:50.602Z,100062.66
2019-05-22T11:55:54.121Z,100068.84
2019-05-22T11:58:57.611Z,100075.02
2019-05-22T12:02:01.100Z,100067.86
2019-05-22T12:05:05.050Z,100064.37
2019-05-22T12:08:08.763Z,100074.04
2019-05-22T12:11:14.208Z,100069.19
2019-05-22T12:14:18.551Z,100075.72
2019-05-22T12:17:37.523Z,100079.01
2019-05-22T12:20:29.286Z,100085.15
2019-05-22T12:23:32.950Z,100082.38
2019-05-22T12:26:37.440Z,100081.28
2019-05-22T12:29:41.064Z,100080.69
2019-05-22T12:32:44.644Z,100083.00
2019-05-22T12:35:48.492Z,100081.05
2019-05-22T12:38:51.988Z,100082.72
2019-05-22T12:41:57.126Z,100086.36
2019-05-22T12:45:00.759Z,100078.38
2019-05-22T12:48:06.433Z,100086.23
2019-05-22T12:51:10.580Z,100086.23
2019-05-22T12:54:14.213Z,100089.38
2019-05-22T12:57:17.659Z,100087.57
2019-05-22T13:00:22.388Z,100096.02
2019-05-22T13:03:25.797Z,100094.22
2019-05-22T13:06:30.639Z,100097.73
2019-05-22T13:09:35.333Z,100094.56
2019-05-22T13:12:39.870Z,100095.42
2019-05-22T13:15:43.862Z,100094.56
2019-05-22T13:18:47.292Z,100096.28
2019-05-22T13:21:52.357Z,100097.73
2019-05-22T13:24:56.947Z,100099.42
2019-05-22T13:28:02.507Z,100103.05
2019-05-22T13:31:07.474Z,100102.55
2019-05-22T13:34:11.988Z,100110.41
2019-05-22T13:37:15.458Z,100108.73
2019-05-22T13:40:27.481Z,100102.55
2019-05-22T13:43:26.727Z,100104.27
2019-05-22T13:46:30.349Z,100111.73
2019-05-22T13:49:35.395Z,100117.44
2019-05-22T13:52:39.610Z,100112.47
2019-05-22T13:55:43.227Z,100114.91
2019-05-22T13:58:46.829Z,100126.37
2019-05-22T14:01:50.752Z,100115.61
2019-05-22T14:04:54.731Z,100123.11
2019-05-22T14:07:58.249Z,100123.23
2019-05-22T14:11:02.856Z,100122.03
2019-05-22T14:14:06.649Z,100125.28
2019-05-22T14:17:10.213Z,100126.25
2019-05-22T14:20:14.093Z,100131.70
2019-05-22T14:23:18.004Z,100134.36
2019-05-22T14:26:21.514Z,100135.22
2019-05-22T14:29:25.068Z,100140.06
2019-05-22T14:32:30.352Z,100140.41
2019-05-22T14:35:47.553Z,100135.56
2019-05-22T14:38:41.561Z,100138.58
2019-05-22T14:41:46.221Z,100137.25
2019-05-22T14:44:49.764Z,100143.30
2019-05-22T14:47:55.360Z,100138.11
2019-05-22T14:51:00.081Z,100134.23
2019-05-22T14:54:05.143Z,100143.90
2019-05-22T14:57:09.791Z,100136.55
2019-05-22T15:00:13.849Z,100144.52
2019-05-22T15:03:17.576Z,100143.90
2019-05-22T15:06:21.269Z,100146.33
2019-05-22T15:09:24.853Z,100148.51
2019-05-22T15:12:28.992Z,100152.15
2019-05-22T15:15:32.466Z,100149.48
2019-05-22T15:18:36.110Z,100153.09
2019-05-22T15:21:40.707Z,100147.66
2019-05-22T15:24:44.209Z,100148.51
2019-05-22T15:27:47.721Z,100155.52
2019-05-22T15:30:52.353Z,100156.84
2019-05-22T15:33:56.082Z,100156.49
2019-05-22T15:37:00.386Z,100155.52
2019-05-22T15:40:05.677Z,100155.52
2019-05-22T15:43:09.118Z,100154.19
2019-05-22T15:46:13.333Z,100165.17
2019-05-22T15:49:17.521Z,100153.59
2019-05-22T15:52:21.762Z,100160.83
2019-05-22T15:55:26.008Z,100170.49
2019-05-22T15:58:32.684Z,100162.52
2019-05-22T16:01:36.885Z,100168.22
2019-05-22T16:04:41.037Z,100168.81
2019-05-22T16:07:48.991Z,100171.47
2019-05-22T16:10:52.814Z,100178.47
2019-05-22T16:13:56.889Z,100187.31
2019-05-22T16:17:01.221Z,100180.66
2019-05-22T16:20:09.495Z,100189.50
2019-05-22T16:23:13.081Z,100183.33
2019-05-22T16:26:17.673Z,100189.50
2019-05-22T16:29:21.920Z,100195.18
2019-05-22T16:32:27.919Z,100189.73
2019-05-22T16:35:31.546Z,100202.30
2019-05-22T16:38:36.503Z,100197.95
2019-05-22T16:41:40.027Z,100199.05
2019-05-22T16:44:44.796Z,100204.48
2019-05-22T16:47:48.236Z,100208.83
2019-05-22T16:50:51.732Z,100208.71
2019-05-22T16:53:57.054Z,100224.08
2019-05-22T16:57:01.059Z,100225.41
2019-05-22T17:00:05.664Z,100222.75
2019-05-22T17:03:10.982Z,100225.14
2019-05-22T17:06:14.763Z,100221.15
2019-05-22T17:09:21.849Z,100218.48
2019-05-22T17:12:25.616Z,100220.09
2019-05-22T17:15:29.438Z,100225.41
2019-05-22T17:18:46.492Z,100232.64
2019-05-22T17:21:43.945Z,100234.33
2019-05-22T17:24:47.463Z,100240.39
2019-05-22T17:27:50.961Z,100243.87
2019-05-22T17:30:54.446Z,100245.94
2019-05-22T17:33:58.631Z,100245.94
2019-05-22T17:37:14.530Z,100247.63
2019-05-22T17:40:20.381Z,100237.73
2019-05-22T17:43:25.507Z,100246.91
2019-05-22T17:46:29.085Z,100246.91
2019-05-22T17:49:33.091Z,100250.28
2019-05-22T17:52:37.684Z,100257.05
2019-05-22T17:55:41.420Z,100259.23
2019-05-22T17:58:45.043Z,100257.44
2019-05-22T18:01:55.220Z,100254.89
2019-05-22T18:05:01.351Z,100264.56
2019-05-22T18:08:07.261Z,100261.55
2019-05-22T18:11:10.783Z,100272.18
2019-05-22T18:14:15.188Z,100271.80
2019-05-22T18:17:19.378Z,100273.52
2019-05-22T18:20:23.521Z,100282.81
2019-05-22T18:23:27.468Z,100285.83
2019-05-22T18:26:32.678Z,100284.97
2019-05-22T18:29:36.355Z,100290.80
2019-05-22T18:32:41.760Z,100299.25
2019-05-22T18:35:45.593Z,100301.05
2019-05-22T18:38:49.145Z,100300.11
2019-05-22T18:41:53.687Z,100297.80
2019-05-22T18:44:57.180Z,100301.79
2019-05-22T18:48:00.688Z,100307.97
2019-05-22T18:51:06.115Z,100306.13
2019-05-22T18:54:09.566Z,100309.65
2019-05-22T18:57:14.387Z,100314.00
2019-05-22T19:00:21.571Z,100311.58
2019-05-22T19:03:25.429Z,100321.03
2019-05-22T19:06:30.574Z,100322.21
2019-05-22T19:09:34.208Z,100327.18
2019-05-22T19:12:38.907Z,100328.16
2019-05-22T19:15:42.908Z,100337.46
2019-05-22T19:18:46.815Z,100328.16
2019-05-22T19:21:51.291Z,100333.71
2019-05-22T19:24:55.805Z,100333.37
2019-05-22T19:27:59.330Z,100325.73
2019-05-22T19:31:03.848Z,100325.73
2019-05-22T19:34:07.847Z,100327.81
2019-05-22T19:37:12.281Z,100328.75
2019-05-22T19:40:16.095Z,100331.80
2019-05-22T19:43:19.678Z,100336.73
2019-05-22T19:46:24.679Z,100337.48
2019-05-22T19:49:29.345Z,100337.01
2019-05-22T19:52:41.837Z,100339.16
2019-05-22T19:55:40.839Z,100339.55
2019-05-22T19:58:45.851Z,100343.90
2019-05-22T20:01:49.898Z,100341.23
2019-05-22T20:04:53.597Z,100341.23
2019-05-22T20:07:57.006Z,100348.25
2019-05-22T20:11:00.764Z,100345.36
2019-05-22T20:14:04.981Z,100346.20
2019-05-22T20:17:08.843Z,100349.56
2019-05-22T20:20:12.808Z,100348.00
2019-05-22T20:23:17.352Z,100353.78
2019-05-22T20:26:21.185Z,100350.89
2019-05-22T20:29:25.740Z,100353.66
2019-05-22T20:32:29.626Z,100361.75
2019-05-22T20:35:34.175Z,100361.39
2019-05-22T20:38:40.124Z,100365.97
2019-05-22T20:41:44.667Z,100367.30
2019-05-22T20:44:49.429Z,100363.31
2019-05-22T20:48:09.666Z,100360.77
2019-05-22T20:51:16.699Z,100364.87
2019-05-22T20:54:20.606Z,100362.47
2019-05-22T20:57:25.705Z,100362.47
2019-05-22T21:00:31.968Z,100371.50
2019-05-22T21:03:36.858Z,100377.20
2019-05-22T21:06:44.240Z,100379.36
2019-05-22T21:09:48.159Z,100383.00
2019-05-22T21:12:53.449Z,100382.25
2019-05-22T21:15:56.891Z,100385.41
2019-05-22T21:19:00.328Z,100393.00
2019-05-22T21:22:05.398Z,100385.88
2019-05-22T21:25:11.995Z,100382.98
2019-05-22T21:28:21.451Z,100387.83
2019-05-22T21:31:26.931Z,100392.40
2019-05-22T21:34:30.433Z,100389.38
2019-05-22T21:37:33.931Z,100387.66
2019-05-22T21:40:38.505Z,100383.67
2019-05-22T21:43:41.977Z,100392.04
2019-05-22T21:46:45.470Z,100388.63
2019-05-22T21:49:50.211Z,100385.62
2019-05-22T21:52:53.785Z,100388.28
2019-05-22T21:56:04.696Z,100390.94
2019-05-22T21:59:04.158Z,100389.61
2019-05-22T22:02:13.473Z,100393.81
2019-05-22T22:05:19.257Z,100397.34
2019-05-22T22:08:22.921Z,100384.98
2019-05-22T22:11:27.399Z,100389.47
2019-05-22T22:14:31.367Z,100397.06
2019-05-22T22:17:35.998Z,100397.06
2019-05-22T22:20:39.734Z,100396.70
2019-05-22T22:23:44.752Z,100404.20
2019-05-22T22:26:48.376Z,100401.05
2019-05-22T22:29:52.933Z,100399.36
2019-05-22T22:32:56.763Z,100398.25
2019-05-22T22:36:00.586Z,100399.58
2019-05-22T22:39:10.191Z,100401.27
2019-05-22T22:42:17.952Z,100401.27
2019-05-22T22:45:29.595Z,100402.23
2019-05-22T22:48:35.478Z,100402.23
2019-05-22T22:51:38.918Z,100405.88
2019-05-22T22:54:44.027Z,100408.53
2019-05-22T22:57:48.348Z,100405.98
2019-05-22T23:00:53.450Z,100409.50
2019-05-22T23:03:59.180Z,100405.12
2019-05-22T23:07:05.702Z,100408.75
2019-05-22T23:10:09.456Z,100409.61
2019-05-22T23:13:14.327Z,100412.73
2019-05-22T23:16:20.914Z,100418.52
2019-05-22T23:19:33.649Z,100422.16
2019-05-22T23:22:36.029Z,100423.95
2019-05-22T23:25:42.219Z,100429.66
2019-05-22T23:28:47.197Z,100428.55
2019-05-22T23:31:51.022Z,100423.59
2019-05-22T23:34:55.382Z,100431.09
2019-05-22T23:37:59.141Z,100430.23
2019-05-22T23:41:03.254Z,100439.90
2019-05-22T23:44:07.607Z,100438.68
2019-05-22T23:47:12.867Z,100432.89
2019-05-22T23:50:17.245Z,100432.03
2019-05-22T23:53:23.518Z,100427.77
2019-05-22T23:56:27.656Z,100431.39
2019-05-22T23:59:33.888Z,100437.57
